Time;durP1;ratioP1;P1;durP2;ratioP2;P2;SDS_P1;SDS_P2;PMS_P1;PMS_P2;Temp;Humidity;BMP_temperature;BMP_pressure;BME280_temperature;BME280_humidity;BME280_pressure;Samples;Min_cycle;Max_cycle;Signal;HPM_P1;HPM_P2
2023/01/26 00:01:17;;;;;;;468.27;42.87;;;;;;;-0.69;100.00;95980.50;5052947;28;20217;-79
2023/01/26 00:03:42;;;;;;;497.37;41.53;;;;;;;-0.87;100.00;95979.59;5040243;28;20275;-79
2023/01/26 00:06:10;;;;;;;80.33;21.57;;;;;;;-0.63;100.00;95968.28;5075101;28;20193;-79
2023/01/26 00:08:36;;;;;;;108.93;26.80;;;;;;;-0.58;100.00;95970.63;5043924;28;20570;-79
2023/01/26 00:11:06;;;;;;;152.37;24.63;;;;;;;-0.61;100.00;95963.97;5054381;28;20739;-79
2023/01/26 00:13:32;;;;;;;177.03;25.97;;;;;;;-0.56;100.00;95963.75;5027719;28;20185;-79
2023/01/26 00:15:57;;;;;;;273.53;31.20;;;;;;;-0.78;100.00;95960.53;5041610;28;20191;-79
2023/01/26 00:18:23;;;;;;;349.50;35.20;;;;;;;-0.79;100.00;95951.22;5051895;28;20216;-79
2023/01/26 00:20:54;;;;;;;200.30;29.73;;;;;;;-0.91;100.00;95957.69;5037706;28;20216;-79
2023/01/26 00:23:19;;;;;;;275.77;28.67;;;;;;;-0.99;100.00;95945.25;5028188;28;20205;-78
2023/01/26 00:25:44;;;;;;;387.23;33.97;;;;;;;-1.16;100.00;95950.28;5050724;28;20200;-79
2023/01/26 00:28:10;;;;;;;511.33;42.10;;;;;;;-1.06;100.00;95945.59;5045777;28;20202;-79
2023/01/26 00:30:35;;;;;;;202.23;27.40;;;;;;;-0.91;100.00;95945.75;5041219;28;20221;-79
2023/01/26 00:33:00;;;;;;;182.23;26.77;;;;;;;-0.79;100.00;95941.84;5046738;28;20194;-79
2023/01/26 00:35:26;;;;;;;293.00;32.10;;;;;;;-0.81;100.00;95937.69;5052785;28;20204;-79
2023/01/26 00:37:51;;;;;;;239.07;29.77;;;;;;;-0.82;100.00;95936.03;5056047;28;20195;-78
2023/01/26 00:40:16;;;;;;;87.10;22.47;;;;;;;-0.72;100.00;95933.00;5047084;28;20206;-79
2023/01/26 00:42:42;;;;;;;162.80;27.50;;;;;;;-0.79;100.00;95934.19;5038471;28;20220;-79
2023/01/26 00:45:07;;;;;;;287.63;30.87;;;;;;;-0.93;100.00;95929.69;5053313;28;20198;-79
2023/01/26 00:47:32;;;;;;;179.90;25.77;;;;;;;-0.89;100.00;95928.66;5041824;28;20185;-78
2023/01/26 00:49:58;;;;;;;251.50;29.47;;;;;;;-0.90;100.00;95923.63;5050543;28;20217;-79
2023/01/26 00:52:23;;;;;;;74.30;22.37;;;;;;;-0.78;100.00;95928.19;5050707;28;20238;-79
2023/01/26 00:54:48;;;;;;;81.63;23.17;;;;;;;-0.68;100.00;95928.59;5049619;28;20555;-79
2023/01/26 00:57:13;;;;;;;58.93;21.20;;;;;;;-0.60;100.00;95926.53;5043012;28;20191;-79
2023/01/26 00:59:39;;;;;;;61.37;21.33;;;;;;;-0.57;100.00;95923.81;5047366;28;20185;-79
2023/01/26 01:02:04;;;;;;;78.03;22.77;;;;;;;-0.58;100.00;95924.72;5045544;28;20259;-79
2023/01/26 01:04:30;;;;;;;55.67;21.90;;;;;;;-0.58;100.00;95924.72;5043603;28;20689;-79
2023/01/26 01:06:58;;;;;;;64.70;20.73;;;;;;;-0.48;100.00;95920.84;5032465;28;20186;-79
2023/01/26 01:09:24;;;;;;;55.77;20.57;;;;;;;-0.49;100.00;95921.75;5044634;28;20195;-79
2023/01/26 01:11:49;;;;;;;78.50;22.30;;;;;;;-0.56;100.00;95917.81;5049149;28;20217;-79
2023/01/26 01:14:14;;;;;;;73.43;20.33;;;;;;;-0.60;100.00;95913.78;5035991;28;20189;-79
2023/01/26 01:16:40;;;;;;;88.53;21.50;;;;;;;-0.55;100.00;95923.75;5040163;28;20184;-77
2023/01/26 01:19:06;;;;;;;65.43;21.10;;;;;;;-0.61;100.00;95918.03;5042988;28;20193;-77
2023/01/26 01:21:31;;;;;;;49.83;19.23;;;;;;;-0.49;100.00;95920.91;5039942;28;20213;-77
2023/01/26 01:23:57;;;;;;;99.67;21.83;;;;;;;-0.60;100.00;95917.16;5041812;28;20208;-77
2023/01/26 01:26:22;;;;;;;59.20;20.10;;;;;;;-0.58;100.00;95922.16;5034484;28;20181;-77
2023/01/26 01:28:48;;;;;;;74.87;19.50;;;;;;;-0.59;100.00;95911.16;5046699;28;20189;-77
2023/01/26 01:31:15;;;;;;;67.53;18.53;;;;;;;-0.71;100.00;95903.22;5041053;28;20211;-79
2023/01/26 01:33:40;;;;;;;69.67;17.57;;;;;;;-0.84;100.00;95907.25;5052887;28;20202;-76
2023/01/26 01:36:09;;;;;;;62.33;18.40;;;;;;;-0.80;100.00;95903.63;5055635;28;20216;-79
2023/01/26 01:38:35;;;;;;;134.30;21.80;;;;;;;-0.94;100.00;95902.56;5058705;28;20204;-77
2023/01/26 01:41:00;;;;;;;81.90;20.43;;;;;;;-1.00;100.00;95900.28;5046923;28;20209;-79
2023/01/26 01:43:26;;;;;;;72.03;19.07;;;;;;;-0.96;100.00;95896.72;5052788;28;20219;-79
2023/01/26 01:45:52;;;;;;;39.57;17.57;;;;;;;-0.84;100.00;95894.50;5057035;28;20189;-79
2023/01/26 01:48:59;;;;;;;47.30;17.17;;;;;;;-0.75;100.00;95894.06;5047845;28;20189;-77
2023/01/26 01:51:33;;;;;;;32.50;15.93;;;;;;;-0.76;100.00;95879.66;5048061;28;20220;-78
2023/01/26 01:54:03;;;;;;;45.97;17.37;;;;;;;-1.00;100.00;95884.97;5044813;28;20186;-78
2023/01/26 01:56:29;;;;;;;42.13;16.43;;;;;;;-0.98;100.00;95880.63;5037882;28;20192;-79
2023/01/26 01:58:56;;;;;;;31.13;15.03;;;;;;;-0.82;100.00;95879.94;5050325;28;20188;-78
2023/01/26 02:01:21;;;;;;;40.37;17.23;;;;;;;-0.79;100.00;95873.00;5036337;28;20212;-78
2023/01/26 02:03:48;;;;;;;36.23;15.77;;;;;;;-0.91;100.00;95871.81;5042304;28;20205;-78
2023/01/26 02:06:21;;;;;;;36.50;16.33;;;;;;;-0.86;100.00;95884.38;5044053;28;20197;-77
2023/01/26 02:08:51;;;;;;;34.77;16.33;;;;;;;-0.76;100.00;95879.66;5040752;28;20180;-78
2023/01/26 02:11:20;;;;;;;41.03;17.90;;;;;;;-0.67;100.00;95879.25;5036686;28;20208;-78
2023/01/26 02:13:47;;;;;;;40.70;18.17;;;;;;;-0.68;100.00;95883.50;5038313;28;20226;-78
2023/01/26 02:16:13;;;;;;;38.53;16.63;;;;;;;-0.68;100.00;95882.69;5051730;28;20196;-77
2023/01/26 02:18:38;;;;;;;30.53;16.07;;;;;;;-0.65;100.00;95887.63;5044493;28;20185;-78
2023/01/26 02:21:09;;;;;;;32.53;16.03;;;;;;;-0.63;100.00;95881.56;5035747;28;20270;-77
2023/01/26 02:23:53;;;;;;;35.80;16.63;;;;;;;-0.55;100.00;95878.66;5024041;28;20210;-77
2023/01/26 02:26:23;;;;;;;35.80;16.40;;;;;;;-0.51;100.00;95877.63;5048764;28;20194;-77
2023/01/26 02:28:48;;;;;;;34.63;16.73;;;;;;;-0.57;100.00;95875.34;5047800;28;20193;-77
2023/01/26 02:31:14;;;;;;;37.63;17.23;;;;;;;-0.58;100.00;95871.16;5046314;28;20227;-78
2023/01/26 02:33:40;;;;;;;41.27;17.43;;;;;;;-0.66;100.00;95878.34;5052434;28;20281;-78
2023/01/26 02:36:07;;;;;;;35.07;16.43;;;;;;;-0.63;100.00;95870.53;5053407;28;20184;-78
2023/01/26 02:38:41;;;;;;;43.00;16.67;;;;;;;-0.58;100.00;95876.25;5047396;28;20197;-77
2023/01/26 02:41:12;;;;;;;38.83;16.57;;;;;;;-0.58;100.00;95868.59;5045332;28;20204;-77
2023/01/26 02:43:37;;;;;;;33.87;15.47;;;;;;;-0.59;100.00;95866.94;5041354;28;20221;-78
2023/01/26 02:46:03;;;;;;;31.37;15.20;;;;;;;-0.67;100.00;95864.75;5046314;28;20661;-78
2023/01/26 02:51:12;;;;;;;34.13;15.50;;;;;;;-0.59;100.00;95859.31;5049433;28;20211;-78
2023/01/26 02:53:38;;;;;;;34.53;16.27;;;;;;;-0.64;100.00;95856.13;5050352;28;20181;-77
2023/01/26 02:56:03;;;;;;;33.73;15.03;;;;;;;-0.72;100.00;95860.75;5063870;28;20184;-77
2023/01/26 02:58:28;;;;;;;25.77;14.27;;;;;;;-0.67;99.92;95869.03;5062877;28;20198;-77
2023/01/26 03:00:54;;;;;;;28.27;15.10;;;;;;;-0.65;100.00;95867.22;5054170;28;20259;-76
2023/01/26 03:03:24;;;;;;;28.97;15.37;;;;;;;-0.61;99.98;95863.66;5058406;28;20210;-77
2023/01/26 03:05:50;;;;;;;34.70;16.10;;;;;;;-0.77;100.00;95862.72;5060799;28;20161;-77
2023/01/26 03:08:15;;;;;;;33.27;15.40;;;;;;;-0.68;100.00;95852.09;5046296;28;20186;-78
2023/01/26 03:10:41;;;;;;;30.13;15.37;;;;;;;-0.60;100.00;95857.66;5044447;28;20241;-77
2023/01/26 03:13:06;;;;;;;33.70;16.33;;;;;;;-0.60;99.95;95862.75;5058325;28;20786;-78
2023/01/26 03:15:51;;;;;;;32.63;15.37;;;;;;;-0.63;100.00;95861.16;5051219;28;20206;-78
2023/01/26 03:29:20;;;;;;;663.33;52.50;;;;;;;-1.05;100.00;95847.88;5049583;28;20185;-78
2023/01/26 03:31:46;;;;;;;229.37;29.63;;;;;;;-1.03;100.00;95846.06;5025989;28;20681;-77
2023/01/26 03:34:11;;;;;;;346.37;39.37;;;;;;;-1.08;100.00;95841.16;5047165;28;20273;-78
2023/01/26 03:36:36;;;;;;;487.57;41.83;;;;;;;-1.00;100.00;95845.91;5044701;28;20189;-77
2023/01/26 03:39:03;;;;;;;481.87;44.27;;;;;;;-1.16;100.00;95840.69;5053046;28;20188;-78
2023/01/26 03:57:52;;;;;;;85.90;23.00;;;;;;;-1.07;100.00;95819.88;5045102;28;20696;-77
2023/01/26 04:00:17;;;;;;;170.60;25.10;;;;;;;-1.07;100.00;95817.31;5049554;28;20205;-78
2023/01/26 04:08:23;;;;;;;301.10;30.73;;;;;;;-1.11;100.00;95812.47;5049685;28;20194;-77
2023/01/26 04:10:52;;;;;;;347.67;36.67;;;;;;;-1.28;100.00;95806.41;5041170;28;20263;-78
2023/01/26 04:21:34;;;;;;;69.33;20.03;;;;;;;-0.97;100.00;95803.28;5054340;28;20235;-78
2023/01/26 04:24:08;;;;;;;75.60;21.10;;;;;;;-1.16;100.00;95805.84;5052478;28;20692;-78
2023/01/26 04:26:34;;;;;;;78.70;18.97;;;;;;;-1.22;100.00;95806.13;5053417;28;20668;-78
2023/01/26 04:29:03;;;;;;;74.93;17.47;;;;;;;-1.24;100.00;95802.81;5058568;28;20203;-78
2023/01/26 04:31:29;;;;;;;45.83;16.93;;;;;;;-1.19;100.00;95810.25;5050761;28;20294;-78
2023/01/26 04:33:55;;;;;;;47.53;16.70;;;;;;;-1.21;100.00;95807.78;5049996;28;20666;-77
2023/01/26 04:36:20;;;;;;;37.70;16.50;;;;;;;-1.19;100.00;95808.53;5049030;28;20192;-78
2023/01/26 04:38:45;;;;;;;34.20;16.33;;;;;;;-1.30;100.00;95807.38;5048809;28;20331;-79
2023/01/26 04:41:11;;;;;;;35.03;16.37;;;;;;;-1.32;100.00;95814.28;5051536;28;20226;-78
2023/01/26 04:43:36;;;;;;;30.60;13.43;;;;;;;-1.46;100.00;95808.06;5038843;28;20208;-78
2023/01/26 04:46:04;;;;;;;30.50;14.47;;;;;;;-1.28;100.00;95810.69;5055545;28;20187;-78
2023/01/26 04:48:30;;;;;;;29.93;15.43;;;;;;;-1.17;100.00;95808.47;5044604;28;20191;-78
2023/01/26 04:50:57;;;;;;;29.37;14.63;;;;;;;-1.11;100.00;95810.72;5040597;28;20206;-78
2023/01/26 04:53:22;;;;;;;30.90;15.83;;;;;;;-1.12;100.00;95806.53;5028919;28;20557;-78
2023/01/26 04:55:48;;;;;;;108.53;18.53;;;;;;;-1.24;100.00;95807.91;5040992;28;20241;-78
2023/01/26 04:58:13;;;;;;;48.90;15.90;;;;;;;-1.31;100.00;95801.47;5048392;28;20279;-78
2023/01/26 05:00:38;;;;;;;161.97;21.03;;;;;;;-1.66;100.00;95794.56;5041220;28;20248;-78
2023/01/26 05:03:04;;;;;;;86.67;17.97;;;;;;;-1.42;100.00;95804.47;5039444;28;20204;-78
2023/01/26 05:05:29;;;;;;;133.97;20.13;;;;;;;-1.61;100.00;95802.81;5048442;28;20199;-78
2023/01/26 05:07:54;;;;;;;58.07;16.70;;;;;;;-1.63;100.00;95799.53;5049632;28;20193;-78
2023/01/26 05:10:20;;;;;;;50.10;16.57;;;;;;;-1.64;100.00;95805.50;5040773;28;20217;-77
2023/01/26 05:12:45;;;;;;;43.60;16.83;;;;;;;-1.54;100.00;95799.13;5043184;28;20561;-77
2023/01/26 05:15:10;;;;;;;45.70;17.70;;;;;;;-1.42;100.00;95798.56;5051949;28;20639;-78
2023/01/26 05:17:35;;;;;;;62.10;17.67;;;;;;;-1.68;100.00;95801.44;5055799;28;20672;-77
2023/01/26 05:20:01;;;;;;;36.07;15.10;;;;;;;-1.44;100.00;95808.00;5040538;28;20201;-78
2023/01/26 05:22:26;;;;;;;43.53;19.23;;;;;;;-1.50;100.00;95806.56;5045084;28;20258;-78
2023/01/26 05:24:52;;;;;;;58.20;18.70;;;;;;;-1.65;100.00;95802.13;5047636;28;20191;-78
2023/01/26 05:27:20;;;;;;;89.40;19.50;;;;;;;-1.59;100.00;95796.78;5049215;28;20186;-78
2023/01/26 05:29:45;;;;;;;53.00;17.40;;;;;;;-1.83;100.00;95796.13;5043378;28;20190;-78
2023/01/26 05:32:11;;;;;;;41.13;18.37;;;;;;;-1.50;100.00;95793.81;5048525;28;20235;-78
2023/01/26 05:34:36;;;;;;;37.83;16.97;;;;;;;-1.45;100.00;95798.69;5050235;28;20189;-78
2023/01/26 05:37:01;;;;;;;40.40;18.10;;;;;;;-1.78;100.00;95794.19;5038564;28;20197;-78
2023/01/26 05:39:27;;;;;;;44.33;18.43;;;;;;;-1.75;100.00;95791.53;5053824;28;20217;-78
2023/01/26 05:41:54;;;;;;;31.70;15.43;;;;;;;-1.64;100.00;95798.69;5051789;28;20617;-78
2023/01/26 05:44:20;;;;;;;34.97;16.53;;;;;;;-1.58;100.00;95795.88;5040905;28;20201;-78
2023/01/26 05:46:45;;;;;;;33.43;16.70;;;;;;;-1.51;100.00;95794.69;5041737;28;20269;-78
2023/01/26 05:49:10;;;;;;;31.83;15.23;;;;;;;-1.67;100.00;95793.75;5049697;28;20190;-78
2023/01/26 05:51:36;;;;;;;38.60;15.70;;;;;;;-1.95;100.00;95795.81;5051789;28;20205;-77
2023/01/26 05:54:01;;;;;;;35.27;16.13;;;;;;;-1.70;100.00;95801.50;5058561;28;20192;-78
2023/01/26 05:56:26;;;;;;;34.07;16.70;;;;;;;-1.73;100.00;95797.38;5046254;28;20191;-77
2023/01/26 05:58:51;;;;;;;29.83;13.30;;;;;;;-1.50;100.00;95796.38;5037924;28;20193;-79
2023/01/26 06:01:17;;;;;;;28.47;13.93;;;;;;;-1.56;100.00;95791.53;5047101;28;20215;-78
2023/01/26 06:03:42;;;;;;;31.30;15.63;;;;;;;-1.54;100.00;95799.94;5047013;28;20683;-78
2023/01/26 06:06:07;;;;;;;36.77;16.77;;;;;;;-1.44;100.00;95803.72;5060032;28;20203;-78
2023/01/26 06:08:33;;;;;;;34.50;16.10;;;;;;;-1.42;99.27;95793.47;5054706;28;20193;-78
2023/01/26 06:11:00;;;;;;;30.50;15.27;;;;;;;-1.43;99.58;95791.81;5062962;28;20613;-77
2023/01/26 06:13:25;;;;;;;33.83;14.90;;;;;;;-1.51;99.05;95799.78;5044999;28;20279;-77
2023/01/26 06:15:50;;;;;;;32.47;16.87;;;;;;;-1.50;99.32;95801.47;5054904;28;20188;-79
2023/01/26 06:18:15;;;;;;;31.63;15.67;;;;;;;-1.55;98.86;95794.91;5053385;28;20198;-79
2023/01/26 06:20:41;;;;;;;30.37;17.17;;;;;;;-1.73;99.02;95794.84;5027410;28;20210;-77
2023/01/26 06:23:10;;;;;;;35.20;16.30;;;;;;;-1.69;99.42;95800.59;5052518;28;20231;-78
2023/01/26 06:25:37;;;;;;;19.20;10.80;;;;;;;-1.57;98.26;95799.25;5052606;28;20197;-77
2023/01/26 06:28:02;;;;;;;19.90;10.03;;;;;;;-1.69;97.89;95798.06;5048875;28;20573;-78
2023/01/26 06:30:28;;;;;;;17.07;9.77;;;;;;;-1.53;97.16;95796.50;5045247;28;20206;-77
2023/01/26 06:32:53;;;;;;;18.20;10.37;;;;;;;-1.59;97.63;95799.34;5037669;28;20188;-76
2023/01/26 06:35:18;;;;;;;20.40;11.03;;;;;;;-1.44;96.12;95795.25;5041676;28;20206;-77
2023/01/26 06:37:47;;;;;;;20.07;10.83;;;;;;;-1.44;96.46;95790.16;5031946;28;20757;-76
2023/01/26 06:40:12;;;;;;;26.77;14.10;;;;;;;-1.51;96.00;95794.69;5040045;28;20207;-77
2023/01/26 06:42:37;;;;;;;28.87;12.93;;;;;;;-1.59;97.35;95790.84;5045954;28;20217;-77
2023/01/26 06:45:03;;;;;;;26.47;12.37;;;;;;;-1.56;97.13;95796.63;5041780;28;20693;-77
2023/01/26 06:47:28;;;;;;;26.90;15.33;;;;;;;-1.53;96.85;95798.22;5057086;28;20251;-77
2023/01/26 06:49:54;;;;;;;29.20;13.80;;;;;;;-1.44;96.85;95801.16;5056863;28;20206;-77
2023/01/26 06:52:34;;;;;;;27.27;13.70;;;;;;;-1.34;96.82;95800.75;5043684;28;20183;-77
2023/01/26 06:55:00;;;;;;;24.37;12.13;;;;;;;-1.32;96.63;95799.00;5049528;28;20216;-77
2023/01/26 06:57:26;;;;;;;22.50;11.27;;;;;;;-1.29;96.47;95793.75;5042007;28;20612;-76
2023/01/26 06:59:51;;;;;;;25.87;13.27;;;;;;;-1.44;95.69;95801.16;5056853;28;20221;-78
2023/01/26 07:02:20;;;;;;;22.00;12.60;;;;;;;-1.30;95.88;95813.31;5050332;28;20265;-77
2023/01/26 07:04:46;;;;;;;23.90;12.20;;;;;;;-1.37;95.64;95811.91;5052128;28;20184;-77
2023/01/26 07:07:12;;;;;;;22.97;11.90;;;;;;;-1.35;96.07;95820.31;5046731;28;20182;-77
2023/01/26 07:09:37;;;;;;;22.90;12.13;;;;;;;-1.38;95.74;95815.38;5042933;28;20331;-77
2023/01/26 07:12:03;;;;;;;27.40;13.43;;;;;;;-1.51;95.92;95804.88;5049790;28;20192;-78
2023/01/26 07:14:30;;;;;;;22.73;12.07;;;;;;;-1.42;96.36;95814.66;5057041;28;20283;-78
2023/01/26 07:16:56;;;;;;;25.03;11.97;;;;;;;-1.40;95.55;95814.63;5054030;28;20241;-77
2023/01/26 07:19:21;;;;;;;22.33;12.57;;;;;;;-1.25;96.50;95818.16;5046448;28;20198;-78
2023/01/26 07:21:47;;;;;;;25.90;13.87;;;;;;;-1.25;95.92;95815.63;5051943;28;20212;-77
2023/01/26 07:24:12;;;;;;;25.87;12.17;;;;;;;-1.34;94.92;95809.22;5054184;28;20208;-78
2023/01/26 07:26:38;;;;;;;26.37;13.57;;;;;;;-1.32;95.26;95819.38;5056148;28;20656;-78
2023/01/26 07:29:03;;;;;;;32.67;18.53;;;;;;;-1.26;95.15;95821.63;5060170;28;20196;-77
2023/01/26 07:31:28;;;;;;;24.90;14.50;;;;;;;-1.22;95.41;95820.59;5056836;28;20226;-78
2023/01/26 07:33:54;;;;;;;29.67;15.17;;;;;;;-1.23;95.53;95819.78;5055774;28;20216;-77
2023/01/26 07:36:19;;;;;;;28.97;14.07;;;;;;;-1.10;95.24;95826.84;5060825;28;20198;-78
2023/01/26 07:38:44;;;;;;;25.23;13.67;;;;;;;-1.24;94.41;95822.38;5056959;28;20218;-78
2023/01/26 07:41:11;;;;;;;29.70;14.17;;;;;;;-1.14;95.19;95826.19;5058692;28;20203;-78
2023/01/26 07:43:36;;;;;;;26.27;14.23;;;;;;;-1.21;95.32;95823.06;5046475;28;20579;-78
2023/01/26 07:46:02;;;;;;;28.23;15.13;;;;;;;-1.16;95.15;95821.13;5041627;28;20192;-76
2023/01/26 07:48:31;;;;;;;27.83;15.70;;;;;;;-1.17;95.00;95823.75;5053171;28;20650;-78
2023/01/26 07:51:01;;;;;;;28.27;14.10;;;;;;;-1.07;95.06;95822.44;5056890;28;20299;-77
2023/01/26 07:53:28;;;;;;;26.37;13.90;;;;;;;-1.29;94.55;95820.03;5044372;28;20184;-78
2023/01/26 07:56:03;;;;;;;27.17;13.60;;;;;;;-1.22;94.42;95818.06;5034030;28;20247;-78
2023/01/26 07:58:28;;;;;;;20.80;11.47;;;;;;;-1.60;95.88;95815.47;5037034;28;20191;-78
2023/01/26 08:00:54;;;;;;;24.23;12.67;;;;;;;-1.52;95.40;95807.50;5056277;28;20219;-78
2023/01/26 08:03:23;;;;;;;22.90;12.13;;;;;;;-1.69;96.46;95810.78;5038938;28;20198;-78
2023/01/26 08:05:51;;;;;;;22.67;12.70;;;;;;;-1.43;95.26;95817.28;5057344;28;20199;-78
2023/01/26 08:08:17;;;;;;;23.40;11.60;;;;;;;-1.51;94.76;95824.44;5060253;28;20211;-78
2023/01/26 08:10:42;;;;;;;28.83;14.00;;;;;;;-1.60;94.28;95830.75;5050217;28;20215;-78
2023/01/26 08:13:07;;;;;;;24.27;12.77;;;;;;;-1.56;94.72;95834.84;5047979;28;20182;-77
2023/01/26 08:15:32;;;;;;;23.53;11.37;;;;;;;-1.69;95.24;95825.25;5054246;28;20553;-80
2023/01/26 08:17:59;;;;;;;27.43;13.10;;;;;;;-1.72;95.88;95824.50;5043227;28;20182;-77
2023/01/26 08:20:24;;;;;;;25.17;12.23;;;;;;;-1.81;96.84;95829.97;5060580;28;20202;-79
2023/01/26 08:22:50;;;;;;;22.73;12.73;;;;;;;-1.80;96.51;95826.53;5057673;28;20239;-79
2023/01/26 08:25:15;;;;;;;28.23;14.00;;;;;;;-1.84;96.63;95827.56;5046581;28;20179;-77
2023/01/26 08:27:41;;;;;;;22.60;12.00;;;;;;;-1.76;95.79;95834.91;5045933;28;20195;-79
2023/01/26 08:30:06;;;;;;;24.37;12.73;;;;;;;-1.81;95.59;95834.25;5050759;28;20289;-79
2023/01/26 08:32:32;;;;;;;21.97;11.87;;;;;;;-1.65;95.25;95837.78;5054722;28;20255;-79
2023/01/26 08:34:57;;;;;;;27.60;13.20;;;;;;;-1.60;95.39;95830.75;5050371;28;20190;-80
2023/01/26 08:37:22;;;;;;;26.30;13.67;;;;;;;-1.55;95.53;95828.03;5056920;28;20208;-79
2023/01/26 08:39:48;;;;;;;26.57;13.43;;;;;;;-1.54;95.30;95835.59;5050741;28;20220;-79
2023/01/26 08:42:13;;;;;;;24.20;12.60;;;;;;;-1.41;94.72;95830.81;5054114;28;20189;-78
2023/01/26 08:44:38;;;;;;;28.13;14.10;;;;;;;-1.40;94.52;95827.34;5048436;28;20193;-78
2023/01/26 08:47:03;;;;;;;24.97;14.07;;;;;;;-1.39;95.03;95823.91;5053885;28;20203;-78
2023/01/26 08:49:29;;;;;;;25.83;13.17;;;;;;;-1.38;94.90;95819.63;5041383;28;20194;-78
2023/01/26 08:51:54;;;;;;;28.57;14.47;;;;;;;-1.35;94.26;95824.59;5054530;28;20210;-78
2023/01/26 08:54:19;;;;;;;25.77;12.73;;;;;;;-1.47;94.81;95820.88;5058783;28;20211;-78
2023/01/26 08:56:45;;;;;;;25.83;13.20;;;;;;;-1.28;94.63;95823.41;5054612;28;20194;-79
2023/01/26 08:59:10;;;;;;;25.57;13.60;;;;;;;-1.31;93.82;95828.66;5052452;28;20199;-79
2023/01/26 09:01:36;;;;;;;23.60;12.20;;;;;;;-1.24;93.27;95828.28;5047787;28;20206;-78
2023/01/26 09:04:02;;;;;;;27.83;10.97;;;;;;;-1.09;93.42;95826.78;5047793;28;20212;-79
2023/01/26 09:06:27;;;;;;;24.00;12.87;;;;;;;-1.08;92.72;95828.44;5049358;28;20706;-79
2023/01/26 09:08:52;;;;;;;25.40;13.27;;;;;;;-1.11;91.78;95826.03;5027714;28;20191;-79
2023/01/26 09:11:18;;;;;;;22.07;11.40;;;;;;;-1.06;91.08;95821.56;5035580;28;20229;-78
2023/01/26 09:13:43;;;;;;;24.30;12.67;;;;;;;-0.89;91.27;95821.56;5046040;28;20183;-78
2023/01/26 09:16:14;;;;;;;24.80;13.97;;;;;;;-1.19;91.63;95818.72;5040364;28;20514;-78
2023/01/26 09:18:40;;;;;;;24.13;13.10;;;;;;;-1.06;91.74;95815.59;5030922;28;20674;-79
2023/01/26 09:21:07;;;;;;;26.77;13.53;;;;;;;-0.95;91.97;95819.34;5044191;28;20209;-78
2023/01/26 09:23:33;;;;;;;24.67;12.70;;;;;;;-0.80;91.49;95822.88;5039550;28;20232;-78
2023/01/26 09:25:58;;;;;;;25.20;11.87;;;;;;;-1.06;90.80;95830.91;5034732;28;20622;-79
2023/01/26 09:28:24;;;;;;;22.70;12.03;;;;;;;-0.93;91.22;95826.91;5037584;28;20184;-78
2023/01/26 09:30:49;;;;;;;23.13;11.63;;;;;;;-1.16;90.54;95828.78;5041910;28;20205;-79
2023/01/26 09:33:14;;;;;;;25.03;12.97;;;;;;;-0.95;91.28;95829.53;5052502;28;20649;-78
2023/01/26 09:35:39;;;;;;;26.90;12.93;;;;;;;-0.91;91.94;95820.00;5045451;28;20196;-79
2023/01/26 09:38:05;;;;;;;33.13;15.83;;;;;;;-1.03;92.12;95821.41;5053840;28;20235;-78
2023/01/26 09:40:56;;;;;;;30.60;14.20;;;;;;;-0.97;92.13;95822.81;5058140;28;20210;-79
2023/01/26 09:43:37;;;;;;;27.53;14.13;;;;;;;-0.81;91.86;95825.50;5062189;28;20651;-78
2023/01/26 09:46:23;;;;;;;27.43;13.97;;;;;;;-0.76;91.94;95821.84;5054494;28;20596;-79
2023/01/26 09:49:18;;;;;;;24.33;12.33;;;;;;;-0.87;91.13;95827.44;5062148;28;20185;-78
2023/01/26 09:51:57;;;;;;;23.13;12.57;;;;;;;-0.93;91.86;95830.28;5061016;28;20212;-79
2023/01/26 09:54:22;;;;;;;33.63;16.33;;;;;;;-0.82;91.82;95824.66;5048221;28;20211;-78
2023/01/26 09:56:48;;;;;;;29.43;15.23;;;;;;;-0.91;92.55;95827.66;5065554;28;20271;-79
2023/01/26 09:59:27;;;;;;;34.57;14.77;;;;;;;-0.89;93.14;95831.78;5059988;28;20210;-79
2023/01/26 10:02:01;;;;;;;34.27;15.80;;;;;;;-0.82;92.91;95826.41;5047466;28;20577;-77
2023/01/26 10:04:35;;;;;;;28.47;13.60;;;;;;;-0.95;93.23;95819.34;5052591;28;21093;-79
2023/01/26 10:07:02;;;;;;;32.20;14.00;;;;;;;-0.94;93.85;95825.25;5049405;28;20192;-79
2023/01/26 10:09:36;;;;;;;32.77;14.27;;;;;;;-1.22;94.83;95821.44;5049909;28;20228;-79
2023/01/26 10:12:06;;;;;;;32.77;11.70;;;;;;;-1.21;94.84;95825.63;5053091;28;20172;-77
2023/01/26 10:14:48;;;;;;;26.33;13.03;;;;;;;-1.12;95.00;95821.00;5057065;28;20263;-78
2023/01/26 10:17:24;;;;;;;24.53;11.83;;;;;;;-1.07;94.79;95821.59;5072854;28;20204;-78
2023/01/26 10:19:53;;;;;;;22.80;11.60;;;;;;;-1.22;94.96;95821.44;5076233;28;20176;-77
2023/01/26 10:22:33;;;;;;;24.43;11.07;;;;;;;-1.26;93.75;95829.25;5068922;28;20169;-78
2023/01/26 10:24:58;;;;;;;19.93;10.13;;;;;;;-1.60;95.99;95824.84;5071818;28;20182;-78
2023/01/26 10:27:24;;;;;;;20.90;11.27;;;;;;;-1.30;95.10;95822.66;5046512;28;20718;-78
2023/01/26 10:29:49;;;;;;;20.40;11.00;;;;;;;-1.61;96.94;95813.00;5044652;28;20256;-78
2023/01/26 10:32:16;;;;;;;25.37;10.67;;;;;;;-1.64;96.48;95819.06;5051605;28;20642;-79
2023/01/26 10:34:43;;;;;;;25.17;12.63;;;;;;;-1.33;95.35;95818.50;5043043;28;20182;-77
2023/01/26 10:37:27;;;;;;;22.23;11.03;;;;;;;-1.39;94.81;95813.72;5054539;28;20260;-79
2023/01/26 10:39:58;;;;;;;22.70;10.30;;;;;;;-1.44;94.43;95811.34;5049728;28;20202;-78
2023/01/26 10:42:26;;;;;;;20.10;9.97;;;;;;;-1.33;94.84;95825.34;5050314;28;20182;-78
2023/01/26 10:44:52;;;;;;;21.67;10.30;;;;;;;-1.25;94.45;95821.53;5041359;28;20589;-78
2023/01/26 10:47:20;;;;;;;20.07;10.70;;;;;;;-1.20;93.93;95823.91;5041901;28;20227;-78
2023/01/26 10:49:45;;;;;;;20.07;10.53;;;;;;;-1.35;94.42;95815.22;5038251;28;20579;-79
2023/01/26 10:52:20;;;;;;;17.97;9.73;;;;;;;-1.22;93.63;95810.41;5048896;28;20202;-79
2023/01/26 10:54:45;;;;;;;21.17;11.00;;;;;;;-1.58;94.68;95807.78;5024174;28;20188;-79
2023/01/26 10:57:27;;;;;;;19.67;9.70;;;;;;;-1.40;94.40;95806.97;5046950;28;20728;-78
2023/01/26 10:59:58;;;;;;;19.73;9.47;;;;;;;-1.45;93.88;95808.88;5045481;28;20252;-79
2023/01/26 11:02:28;;;;;;;19.73;9.37;;;;;;;-1.79;94.40;95804.44;5045686;28;20182;-79
2023/01/26 11:05:15;;;;;;;22.27;10.57;;;;;;;-1.45;95.63;95799.53;5048686;28;20221;-79
2023/01/26 11:07:42;;;;;;;22.83;10.77;;;;;;;-1.26;94.26;95804.59;5048528;28;20222;-78
2023/01/26 11:10:21;;;;;;;21.83;11.43;;;;;;;-1.59;94.33;95806.97;5039011;28;20210;-77
2023/01/26 11:12:47;;;;;;;21.00;9.93;;;;;;;-1.69;96.14;95805.69;5045617;28;20186;-78
2023/01/26 11:15:15;;;;;;;22.43;9.93;;;;;;;-1.60;94.61;95795.09;5036655;28;20231;-78
2023/01/26 11:18:00;;;;;;;20.90;10.97;;;;;;;-1.53;94.98;95788.84;5042516;28;20197;-79
2023/01/26 11:20:40;;;;;;;22.47;11.30;;;;;;;-1.38;93.82;95792.44;5055455;28;20221;-79
2023/01/26 11:23:26;;;;;;;20.37;11.13;;;;;;;-1.35;94.15;95788.91;5046419;28;20210;-78
2023/01/26 11:26:24;;;;;;;18.17;9.77;;;;;;;-1.33;93.36;95784.56;5040858;28;20188;-79
2023/01/26 11:29:11;;;;;;;17.60;9.00;;;;;;;-1.19;92.35;95784.78;5057500;28;20219;-80
2023/01/26 11:31:58;;;;;;;19.20;9.70;;;;;;;-1.13;91.56;95784.50;5047126;28;20219;-78
2023/01/26 11:34:42;;;;;;;16.83;8.53;;;;;;;-1.39;92.52;95782.31;5057390;28;20186;-78
2023/01/26 11:37:45;;;;;;;15.30;8.63;;;;;;;-1.40;92.71;95784.03;5043084;28;20198;-78
2023/01/26 11:40:24;;;;;;;13.97;8.07;;;;;;;-1.39;92.00;95777.22;5040088;28;20212;-78
2023/01/26 11:43:04;;;;;;;14.50;7.53;;;;;;;-1.84;93.10;95778.38;5049652;28;20198;-79
2023/01/26 11:45:41;;;;;;;14.07;8.00;;;;;;;-1.56;93.10;95770.34;5059390;28;20190;-80
2023/01/26 11:48:25;;;;;;;15.57;9.23;;;;;;;-1.09;91.95;95772.44;5051632;28;20194;-79
2023/01/26 11:50:57;;;;;;;12.97;7.10;;;;;;;-1.20;89.90;95773.75;5061729;28;20218;-79
2023/01/26 11:53:35;;;;;;;12.90;7.50;;;;;;;-1.06;90.38;95767.19;5043065;28;20196;-80
2023/01/26 11:56:12;;;;;;;12.97;7.43;;;;;;;-1.03;90.27;95756.84;5069674;28;20194;-79
2023/01/26 11:58:52;;;;;;;11.73;6.60;;;;;;;-0.93;89.16;95758.06;5056472;28;20175;-79
2023/01/26 12:01:27;;;;;;;12.20;6.90;;;;;;;-1.48;90.58;95765.72;5044836;28;20603;-80
2023/01/26 12:03:53;;;;;;;14.73;7.87;;;;;;;-1.34;90.64;95760.00;5057040;28;20210;-78